Ames, New York
Current Conditions -  °F | °C
As of 6:55 PM on Tuesday 25 Nov 2014 (Local Time) from KNY0 Reporting Station
Clear Clear  
Wind Chill: 33°   Ceiling: Unl
Heat Index: 38°   Visibility: 10mi
Dew Point: 24°   Wind: 7mph
Humidity: 57%   Direction: 270°W
Pressure: 30.01"   Gusts: NA
Location:  42.8548°N, 74.5942°W
Report Text: KNY0 252355Z AUTO 27006KT 10SM CLR 04/M04 A3001 RMK AO2 T00361043 10081 20036
Loading
Personal Weather Stations






























Interactive Weather Map New forecast layout! Learn more

10-Day Weather Forecast

Advertisements
Track Severe Weather on mobile